Time;durP1;ratioP1;P1;durP2;ratioP2;P2;SDS_P1;SDS_P2;PMS_P1;PMS_P2;Temp;Humidity;BMP_temperature;BMP_pressure;BME280_temperature;BME280_humidity;BME280_pressure;Samples;Min_cycle;Max_cycle;Signal;HPM_P1;HPM_P2
2021/03/13 00:00:26;;;;;;;2.08;1.00;;;19.50;43.60;;;;;;6194766;28;20112;-65
2021/03/13 00:03:27;;;;;;;1.05;0.70;;;19.50;43.60;;;;;;6195063;28;20031;-64
2021/03/13 00:06:27;;;;;;;1.20;0.70;;;19.50;43.70;;;;;;6194744;28;20494;-64
2021/03/13 00:09:28;;;;;;;1.02;0.80;;;19.50;43.70;;;;;;6194766;28;20026;-64
2021/03/13 00:12:28;;;;;;;0.63;0.60;;;19.50;43.60;;;;;;6194774;28;20382;-64
2021/03/13 00:15:30;;;;;;;2.15;0.80;;;19.50;43.70;;;;;;6195529;28;20373;-64
2021/03/13 00:18:31;;;;;;;0.70;0.60;;;19.50;43.60;;;;;;6199885;28;20077;-64
2021/03/13 00:21:31;;;;;;;1.20;0.82;;;19.50;43.80;;;;;;6167156;28;20130;-65
2021/03/13 00:24:32;;;;;;;1.52;0.70;;;19.50;43.70;;;;;;6151592;28;20032;-64
2021/03/13 00:27:45;;;;;;;0.52;0.52;;;19.50;43.60;;;;;;6199452;28;20080;-64
2021/03/13 00:30:47;;;;;;;0.90;0.65;;;19.50;43.80;;;;;;6199299;28;20493;-64
2021/03/13 00:33:48;;;;;;;2.03;0.70;;;19.50;43.70;;;;;;6199500;28;20401;-65
2021/03/13 00:36:48;;;;;;;1.30;0.88;;;19.50;43.80;;;;;;6198718;28;20030;-65
2021/03/13 00:39:49;;;;;;;0.60;0.60;;;19.50;43.80;;;;;;6199526;28;20540;-65
2021/03/13 00:42:50;;;;;;;0.63;0.60;;;19.50;43.80;;;;;;6199614;28;20527;-64
2021/03/13 00:45:50;;;;;;;1.38;0.90;;;19.50;43.70;;;;;;6198920;28;20030;-65
2021/03/13 00:48:51;;;;;;;0.60;0.60;;;19.50;43.90;;;;;;6199038;28;20019;-64
2021/03/13 00:51:51;;;;;;;0.73;0.60;;;19.50;43.80;;;;;;6198799;28;20088;-65
2021/03/13 00:54:52;;;;;;;0.75;0.60;;;19.50;43.90;;;;;;6198922;28;20039;-65
2021/03/13 00:57:53;;;;;;;1.10;0.60;;;19.50;43.80;;;;;;6198634;28;20459;-64
2021/03/13 01:00:53;;;;;;;1.55;0.82;;;19.50;43.90;;;;;;6198717;28;20542;-65
2021/03/13 01:03:54;;;;;;;0.50;0.43;;;19.50;43.90;;;;;;6198458;28;20026;-65
2021/03/13 01:06:54;;;;;;;0.90;0.60;;;19.50;43.80;;;;;;6190143;28;20066;-64
2021/03/13 01:09:55;;;;;;;0.68;0.60;;;19.50;43.80;;;;;;6150884;28;20065;-64
2021/03/13 01:12:55;;;;;;;0.90;0.70;;;19.50;43.90;;;;;;6192467;28;20035;-65
2021/03/13 01:15:56;;;;;;;0.65;0.60;;;19.50;43.80;;;;;;6198374;28;20042;-64
2021/03/13 01:18:56;;;;;;;0.68;0.57;;;19.50;43.90;;;;;;6198337;28;20080;-64
2021/03/13 01:21:57;;;;;;;0.70;0.60;;;19.50;43.90;;;;;;6198400;28;20034;-64
2021/03/13 01:24:57;;;;;;;1.60;0.70;;;19.50;44.60;;;;;;6198596;28;20470;-64
2021/03/13 01:27:58;;;;;;;0.40;0.40;;;19.50;43.90;;;;;;6196732;28;20037;-65
2021/03/13 01:30:58;;;;;;;0.63;0.47;;;19.50;43.90;;;;;;6190489;28;20461;-64
2021/03/13 01:34:00;;;;;;;1.30;0.80;;;19.50;44.00;;;;;;6198211;28;20057;-64
2021/03/13 01:37:00;;;;;;;1.13;0.60;;;19.50;44.00;;;;;;6197958;28;20370;-64
2021/03/13 01:40:01;;;;;;;1.63;0.85;;;19.50;44.00;;;;;;6197874;28;20026;-64
2021/03/13 01:43:02;;;;;;;1.30;0.70;;;19.50;44.10;;;;;;6187932;28;20544;-64
2021/03/13 01:46:02;;;;;;;0.80;0.68;;;19.50;44.10;;;;;;6150852;28;20031;-64
2021/03/13 01:49:03;;;;;;;0.95;0.60;;;19.50;44.00;;;;;;6197744;28;20026;-64
2021/03/13 01:52:04;;;;;;;0.90;0.60;;;19.50;44.00;;;;;;6197910;28;20030;-64
2021/03/13 01:55:08;;;;;;;0.85;0.63;;;19.50;44.10;;;;;;6196170;28;20046;-64
2021/03/13 01:58:09;;;;;;;0.70;0.52;;;19.50;44.10;;;;;;6181642;28;20137;-64
2021/03/13 02:01:10;;;;;;;1.60;0.60;;;19.50;43.90;;;;;;6197792;28;20649;-65
2021/03/13 02:04:12;;;;;;;0.80;0.63;;;19.50;44.10;;;;;;6197268;28;20489;-65
2021/03/13 02:07:27;;;;;;;0.77;0.60;;;19.50;43.90;;;;;;6197141;28;20368;-64
2021/03/13 02:10:42;;;;;;;1.05;0.57;;;19.50;44.00;;;;;;6197166;28;20029;-65
2021/03/13 02:13:54;;;;;;;0.57;0.50;;;19.50;44.00;;;;;;6196926;28;20046;-65
2021/03/13 02:17:14;;;;;;;1.08;0.63;;;19.50;44.00;;;;;;6196598;28;20054;-64
2021/03/13 02:20:59;;;;;;;1.30;0.70;;;19.50;44.00;;;;;;6197203;28;20030;-64
2021/03/13 02:24:08;;;;;;;1.07;0.80;;;19.50;44.10;;;;;;6177391;28;20049;-64
2021/03/13 02:27:17;;;;;;;1.17;0.68;;;19.50;44.00;;;;;;6196624;28;20029;-64
2021/03/13 02:30:22;;;;;;;1.00;0.60;;;19.50;44.10;;;;;;6186535;28;20034;-64
2021/03/13 02:33:31;;;;;;;0.98;0.73;;;19.50;44.10;;;;;;6183314;28;20041;-64
2021/03/13 02:36:33;;;;;;;0.60;0.50;;;19.50;44.10;;;;;;6196661;28;20104;-64
2021/03/13 02:39:36;;;;;;;1.02;0.70;;;19.50;44.10;;;;;;6192369;28;20443;-65
2021/03/13 02:42:45;;;;;;;1.02;0.68;;;19.50;44.10;;;;;;6196447;28;20081;-64
2021/03/13 02:45:49;;;;;;;0.95;0.55;;;19.50;44.10;;;;;;6196841;28;20021;-64
2021/03/13 02:48:51;;;;;;;1.23;0.70;;;19.50;44.10;;;;;;6196252;28;20406;-64
2021/03/13 02:51:54;;;;;;;1.35;0.55;;;19.50;44.10;;;;;;6177611;28;20031;-64
2021/03/13 02:54:56;;;;;;;1.10;0.50;;;19.50;44.10;;;;;;6177064;28;20043;-64
2021/03/13 02:57:59;;;;;;;0.63;0.50;;;19.50;44.20;;;;;;6157103;28;20118;-64
2021/03/13 03:01:01;;;;;;;0.73;0.57;;;19.50;44.10;;;;;;6193686;28;20503;-65
2021/03/13 03:04:03;;;;;;;0.80;0.60;;;19.50;44.10;;;;;;6183890;28;20450;-65
2021/03/13 03:07:04;;;;;;;0.75;0.50;;;19.50;44.00;;;;;;6147965;28;20020;-64
2021/03/13 03:10:07;;;;;;;1.00;0.70;;;19.50;44.20;;;;;;6187106;28;20033;-65
2021/03/13 03:13:09;;;;;;;1.42;0.52;;;19.50;44.10;;;;;;6195580;28;20061;-64
2021/03/13 03:16:10;;;;;;;1.05;0.52;;;19.50;44.20;;;;;;6195488;28;20054;-64
2021/03/13 03:19:14;;;;;;;0.40;0.40;;;19.50;44.10;;;;;;6195670;28;20120;-64
2021/03/13 03:22:15;;;;;;;0.80;0.50;;;19.50;44.10;;;;;;6184096;28;20031;-64
2021/03/13 03:25:16;;;;;;;0.98;0.70;;;19.50;44.10;;;;;;6185885;28;20025;-64
2021/03/13 03:28:18;;;;;;;0.57;0.40;;;19.50;45.00;;;;;;6178894;28;20026;-65
2021/03/13 03:31:18;;;;;;;1.08;0.60;;;19.50;44.30;;;;;;6195478;28;20080;-65
2021/03/13 03:34:19;;;;;;;0.65;0.60;;;19.50;44.20;;;;;;6195482;28;20054;-65
2021/03/13 03:37:20;;;;;;;0.40;0.40;;;19.50;44.30;;;;;;6196569;28;20026;-65
2021/03/13 03:40:21;;;;;;;1.60;0.60;;;19.50;44.10;;;;;;6195052;28;20030;-64
2021/03/13 03:43:27;;;;;;;0.77;0.50;;;19.50;44.40;;;;;;6195122;28;20476;-64
2021/03/13 03:46:29;;;;;;;1.30;0.60;;;19.50;44.20;;;;;;6156662;28;20023;-64
2021/03/13 03:49:30;;;;;;;0.85;0.60;;;19.50;44.10;;;;;;6164997;28;20049;-64
2021/03/13 03:52:33;;;;;;;1.40;0.65;;;19.50;44.20;;;;;;6194871;28;20022;-64
2021/03/13 03:55:37;;;;;;;1.08;0.50;;;19.50;44.30;;;;;;6194948;28;20049;-64
2021/03/13 03:58:44;;;;;;;0.70;0.50;;;19.50;44.20;;;;;;6195018;28;20136;-64
2021/03/13 04:01:52;;;;;;;0.40;0.40;;;19.50;44.90;;;;;;6195037;28;20508;-65
2021/03/13 04:04:54;;;;;;;1.17;0.57;;;19.50;44.20;;;;;;6194761;28;20110;-65
2021/03/13 04:07:55;;;;;;;2.03;0.70;;;19.50;44.30;;;;;;6183416;28;20027;-64
2021/03/13 04:10:56;;;;;;;0.40;0.40;;;19.50;44.30;;;;;;6182912;28;20049;-64
2021/03/13 04:13:58;;;;;;;0.80;0.68;;;19.50;44.40;;;;;;6194831;28;20066;-64
2021/03/13 04:16:59;;;;;;;0.68;0.50;;;19.50;44.40;;;;;;6155308;28;20051;-64
2021/03/13 04:20:00;;;;;;;0.50;0.50;;;19.50;44.30;;;;;;6165198;28;20049;-64
2021/03/13 04:23:02;;;;;;;0.50;0.50;;;19.50;44.40;;;;;;6194610;28;20409;-64
2021/03/13 04:26:03;;;;;;;0.52;0.47;;;19.50;44.50;;;;;;6194849;28;20037;-64
2021/03/13 04:29:04;;;;;;;1.05;0.50;;;19.50;44.40;;;;;;6194733;28;20513;-65
2021/03/13 04:32:06;;;;;;;0.50;0.40;;;19.50;44.40;;;;;;6194530;28;20026;-64
2021/03/13 04:35:07;;;;;;;0.70;0.60;;;19.50;44.40;;;;;;6194653;28;20037;-64
2021/03/13 04:38:08;;;;;;;0.63;0.40;;;19.50;44.40;;;;;;6174716;28;20062;-64
2021/03/13 04:41:10;;;;;;;0.70;0.60;;;19.50;44.30;;;;;;6173173;28;20026;-64
2021/03/13 04:44:11;;;;;;;0.75;0.50;;;19.50;44.30;;;;;;6193211;28;20066;-64
2021/03/13 04:47:13;;;;;;;0.40;0.40;;;19.50;44.40;;;;;;6194232;28;20506;-65
2021/03/13 04:50:18;;;;;;;1.15;0.75;;;19.50;44.50;;;;;;6170640;28;20341;-65
2021/03/13 04:53:18;;;;;;;0.30;0.30;;;19.50;44.30;;;;;;6194278;28;20381;-64
2021/03/13 04:56:18;;;;;;;0.50;0.40;;;19.50;44.50;;;;;;6194373;28;20037;-65
2021/03/13 05:03:16;;;;;;;0.55;0.45;;;19.50;44.40;;;;;;6198175;28;20030;-64
2021/03/13 05:06:16;;;;;;;0.88;0.50;;;19.50;44.40;;;;;;6198744;28;20049;-64
2021/03/13 05:09:17;;;;;;;0.40;0.40;;;19.50;44.30;;;;;;6198656;28;20066;-65
2021/03/13 05:12:18;;;;;;;0.75;0.43;;;19.50;44.30;;;;;;6198443;28;20037;-65
2021/03/13 05:15:19;;;;;;;0.50;0.50;;;19.50;44.30;;;;;;6198309;28;20042;-64
2021/03/13 05:18:19;;;;;;;0.70;0.50;;;19.50;44.30;;;;;;6198128;28;20057;-64
2021/03/13 05:21:21;;;;;;;0.68;0.50;;;19.50;44.20;;;;;;6198198;28;20022;-65
2021/03/13 05:24:21;;;;;;;0.52;0.50;;;19.50;44.10;;;;;;6198357;28;20478;-64
2021/03/13 05:27:22;;;;;;;0.40;0.40;;;19.50;44.20;;;;;;6198159;28;20022;-64
2021/03/13 05:30:23;;;;;;;0.57;0.38;;;19.50;44.20;;;;;;6198098;28;20109;-64
2021/03/13 05:33:23;;;;;;;0.73;0.45;;;19.50;44.20;;;;;;6198301;28;20095;-65
2021/03/13 05:36:24;;;;;;;0.60;0.50;;;19.50;44.20;;;;;;6198008;28;20204;-64
2021/03/13 05:39:24;;;;;;;0.65;0.50;;;19.50;44.50;;;;;;6198014;28;20107;-64
2021/03/13 05:42:26;;;;;;;0.50;0.50;;;19.50;44.10;;;;;;6197394;28;20026;-65
2021/03/13 05:45:27;;;;;;;0.68;0.45;;;19.50;44.20;;;;;;6198012;28;20032;-64
2021/03/13 05:48:30;;;;;;;0.70;0.40;;;19.50;44.10;;;;;;6197861;28;20063;-64
2021/03/13 05:51:34;;;;;;;0.47;0.47;;;19.50;44.20;;;;;;6197408;28;20096;-64
2021/03/13 05:54:35;;;;;;;0.68;0.47;;;19.50;44.40;;;;;;6197436;28;20037;-65
2021/03/13 05:57:36;;;;;;;0.95;0.60;;;19.50;44.20;;;;;;6197145;28;20118;-64
2021/03/13 06:00:37;;;;;;;0.95;0.50;;;19.50;44.30;;;;;;6197368;28;20027;-65
2021/03/13 06:03:37;;;;;;;0.65;0.30;;;19.50;44.40;;;;;;6197290;28;20038;-65
2021/03/13 06:06:39;;;;;;;0.68;0.40;;;19.50;44.20;;;;;;6197456;28;20023;-65
2021/03/13 06:09:40;;;;;;;0.77;0.43;;;19.50;44.30;;;;;;6197165;28;20030;-65
2021/03/13 06:12:41;;;;;;;0.52;0.43;;;19.50;44.40;;;;;;6196671;28;20034;-64
2021/03/13 06:15:44;;;;;;;0.40;0.40;;;19.50;44.20;;;;;;6197019;28;20065;-64
2021/03/13 06:18:47;;;;;;;1.08;0.47;;;19.50;44.30;;;;;;6197012;28;20481;-64
2021/03/13 06:21:48;;;;;;;0.65;0.50;;;19.50;44.30;;;;;;6196507;28;20030;-64
2021/03/13 06:24:48;;;;;;;0.38;0.30;;;19.50;44.30;;;;;;6196961;28;20458;-68
2021/03/13 06:28:00;;;;;;;0.40;0.40;;;19.60;44.40;;;;;;6196689;28;20100;-65
2021/03/13 06:31:05;;;;;;;0.73;0.40;;;19.60;44.40;;;;;;6197218;28;20130;-65
2021/03/13 06:34:05;;;;;;;;;;;19.50;44.30;;;;;;6196891;28;20389;-65
2021/03/13 06:37:21;;;;;;;0.73;0.50;;;19.60;44.40;;;;;;6196693;28;19949;-64
2021/03/13 06:40:28;;;;;;;;;;;19.60;44.50;;;;;;6197082;28;20039;-67
2021/03/13 06:43:31;;;;;;;0.57;0.50;;;19.60;44.40;;;;;;6196446;28;20284;-65
2021/03/13 06:46:33;;;;;;;0.40;0.40;;;19.60;44.40;;;;;;6173690;28;20035;-64
2021/03/13 06:49:33;;;;;;;0.77;0.47;;;19.60;44.50;;;;;;6189384;28;20054;-65
2021/03/13 06:52:34;;;;;;;0.70;0.40;;;19.60;45.10;;;;;;6196119;28;20354;-64
2021/03/13 06:55:36;;;;;;;0.80;0.40;;;19.60;44.40;;;;;;6155735;28;20032;-64
2021/03/13 06:58:37;;;;;;;0.40;0.40;;;19.60;44.40;;;;;;6171777;28;20037;-65
2021/03/13 07:01:38;;;;;;;0.90;0.30;;;19.60;44.60;;;;;;6196229;28;20080;-65
2021/03/13 07:04:43;;;;;;;0.70;0.43;;;19.60;44.60;;;;;;6187422;28;20031;-64
2021/03/13 07:07:44;;;;;;;0.70;0.50;;;19.60;44.50;;;;;;6154365;28;20541;-64
2021/03/13 07:10:44;;;;;;;0.45;0.30;;;19.60;44.40;;;;;;6194777;28;20033;-65
2021/03/13 07:13:55;;;;;;;0.30;0.30;;;19.60;44.60;;;;;;6195666;28;20034;-65
2021/03/13 07:16:56;;;;;;;0.43;0.30;;;19.60;44.50;;;;;;6171884;28;20481;-64
2021/03/13 07:19:57;;;;;;;0.40;0.40;;;19.60;44.50;;;;;;6186916;28;20038;-64
2021/03/13 07:23:03;;;;;;;0.50;0.40;;;19.60;44.50;;;;;;6161163;28;20065;-65
2021/03/13 07:26:04;;;;;;;0.82;0.40;;;19.60;44.60;;;;;;6177317;28;20113;-64
2021/03/13 07:29:07;;;;;;;0.95;0.50;;;19.60;44.40;;;;;;6170187;28;20033;-65
2021/03/13 07:32:13;;;;;;;0.88;0.52;;;19.60;44.60;;;;;;6195509;28;20030;-65
2021/03/13 07:35:15;;;;;;;0.52;0.30;;;19.60;44.40;;;;;;6195334;28;20668;-65
2021/03/13 07:38:18;;;;;;;0.47;0.40;;;19.60;44.60;;;;;;6195318;28;20034;-64
2021/03/13 07:41:19;;;;;;;1.30;0.50;;;19.60;44.50;;;;;;6195504;28;20026;-64
2021/03/13 07:44:20;;;;;;;0.50;0.50;;;19.60;44.50;;;;;;6195134;28;20022;-64
2021/03/13 07:47:20;;;;;;;0.40;0.40;;;19.60;44.60;;;;;;6194999;28;20048;-64
2021/03/13 07:50:21;;;;;;;2.45;0.40;;;19.60;45.30;;;;;;6194925;28;20052;-64
2021/03/13 07:53:22;;;;;;;0.22;0.20;;;19.60;44.50;;;;;;6195017;28;20039;-64
2021/03/13 07:56:24;;;;;;;0.52;0.47;;;19.60;44.60;;;;;;6195049;28;20022;-64
2021/03/13 07:59:45;;;;;;;0.60;0.30;;;19.60;44.50;;;;;;6194872;28;20061;-65
2021/03/13 08:02:46;;;;;;;0.50;0.40;;;19.60;44.50;;;;;;6195290;28;20312;-65
2021/03/13 08:05:58;;;;;;;0.40;0.32;;;19.60;44.50;;;;;;6195157;28;20023;-64
2021/03/13 08:08:58;;;;;;;0.35;0.30;;;19.60;44.50;;;;;;6194865;28;20054;-65
2021/03/13 08:11:59;;;;;;;0.50;0.32;;;19.60;44.60;;;;;;6194724;28;20026;-64
2021/03/13 08:15:00;;;;;;;0.50;0.40;;;19.60;44.50;;;;;;6194649;28;20477;-64
2021/03/13 08:18:01;;;;;;;0.85;0.60;;;19.60;44.70;;;;;;6194525;28;20050;-64
2021/03/13 08:21:21;;;;;;;0.30;0.30;;;19.60;44.60;;;;;;6187462;28;20097;-65
2021/03/13 08:24:43;;;;;;;0.20;0.20;;;19.60;44.60;;;;;;6194472;28;20101;-65
2021/03/13 08:27:43;;;;;;;0.40;0.40;;;19.60;44.60;;;;;;6194671;28;20489;-65
2021/03/13 08:30:44;;;;;;;0.40;0.32;;;19.60;44.60;;;;;;6194295;28;20033;-65
2021/03/13 08:33:44;;;;;;;0.30;0.30;;;19.60;44.60;;;;;;6194489;28;20031;-65
2021/03/13 08:36:50;;;;;;;0.90;0.45;;;19.60;44.60;;;;;;6195698;28;20023;-65
2021/03/13 08:39:50;;;;;;;;;;;19.60;44.50;;;;;;6199855;28;20037;-65
2021/03/13 08:42:51;;;;;;;0.82;0.50;;;19.60;44.60;;;;;;6172266;28;20319;-65
2021/03/13 08:45:51;;;;;;;0.43;0.30;;;19.60;44.50;;;;;;6176185;28;20034;-65
2021/03/13 08:48:56;;;;;;;0.40;0.38;;;19.60;44.70;;;;;;6156802;28;20043;-65
2021/03/13 08:52:03;;;;;;;;;;;19.60;44.60;;;;;;6191647;28;20029;-65
2021/03/13 08:55:04;;;;;;;0.43;0.40;;;19.60;44.50;;;;;;6198871;28;19961;-65
2021/03/13 08:58:05;;;;;;;0.35;0.32;;;19.60;44.60;;;;;;6198657;28;20026;-64
2021/03/13 09:01:19;;;;;;;0.68;0.40;;;19.60;44.70;;;;;;6198714;28;20037;-64
2021/03/13 09:04:22;;;;;;;0.55;0.40;;;19.60;44.60;;;;;;6198639;28;20348;-65
2021/03/13 09:07:23;;;;;;;0.90;0.47;;;19.60;44.60;;;;;;6198973;28;20030;-65
2021/03/13 09:10:24;;;;;;;0.50;0.43;;;19.60;44.60;;;;;;6198323;28;20481;-64
2021/03/13 09:13:25;;;;;;;0.30;0.30;;;19.60;44.60;;;;;;6198600;28;20061;-65
2021/03/13 09:16:25;;;;;;;0.55;0.30;;;19.60;44.60;;;;;;6198494;28;20459;-64
2021/03/13 09:19:26;;;;;;;0.50;0.40;;;19.60;44.70;;;;;;6198703;28;20030;-65
2021/03/13 09:22:27;;;;;;;0.47;0.43;;;19.60;44.70;;;;;;6193856;28;20030;-64
2021/03/13 09:25:34;;;;;;;0.47;0.38;;;19.60;44.60;;;;;;6162158;28;20022;-64
2021/03/13 09:28:34;;;;;;;0.47;0.43;;;19.60;44.60;;;;;;6198146;28;20030;-65
2021/03/13 09:31:35;;;;;;;0.35;0.30;;;19.60;44.60;;;;;;6182208;28;20031;-64
2021/03/13 09:34:38;;;;;;;0.30;0.30;;;19.60;44.60;;;;;;6149770;28;20066;-64
2021/03/13 09:37:41;;;;;;;0.45;0.45;;;19.60;44.60;;;;;;6189451;28;20026;-64
2021/03/13 09:40:41;;;;;;;1.85;0.40;;;19.60;44.70;;;;;;6159931;28;20471;-65
2021/03/13 09:43:42;;;;;;;0.55;0.32;;;19.60;44.70;;;;;;6197896;28;20033;-65
2021/03/13 09:46:42;;;;;;;0.40;0.38;;;19.60;44.70;;;;;;6197862;28;20037;-65
2021/03/13 09:49:45;;;;;;;0.73;0.40;;;19.60;44.70;;;;;;6182228;28;20103;-64
2021/03/13 09:52:50;;;;;;;0.30;0.30;;;19.60;44.70;;;;;;6186239;28;20114;-64
2021/03/13 09:55:52;;;;;;;0.40;0.35;;;19.60;44.60;;;;;;6197282;28;20445;-65
2021/03/13 09:58:58;;;;;;;0.55;0.28;;;19.60;44.60;;;;;;6197405;28;20444;-64
2021/03/13 10:01:58;;;;;;;;;;;19.60;44.70;;;;;;6177701;28;20050;-65
2021/03/13 10:04:59;;;;;;;0.50;0.30;;;19.60;44.60;;;;;;6179631;28;19906;-64
2021/03/13 10:08:08;;;;;;;0.32;0.32;;;19.60;44.70;;;;;;6185158;28;20073;-65
2021/03/13 10:11:09;;;;;;;0.57;0.40;;;19.60;44.70;;;;;;6196509;28;20038;-67
2021/03/13 10:14:17;;;;;;;0.57;0.50;;;19.60;44.70;;;;;;6196867;28;20034;-67
2021/03/13 10:17:18;;;;;;;0.85;0.45;;;19.60;44.80;;;;;;6197200;28;20042;-67
2021/03/13 10:20:19;;;;;;;0.68;0.40;;;19.60;44.70;;;;;;6197006;28;20030;-65
2021/03/13 10:23:19;;;;;;;0.75;0.40;;;19.60;44.80;;;;;;6197025;28;20034;-64
2021/03/13 10:26:22;;;;;;;0.20;0.20;;;19.60;44.80;;;;;;6196798;28;20058;-64
2021/03/13 10:29:26;;;;;;;0.32;0.32;;;19.60;44.80;;;;;;6196899;28;20120;-65
2021/03/13 10:32:29;;;;;;;0.50;0.40;;;19.60;44.80;;;;;;6196930;28;20030;-64
2021/03/13 10:35:32;;;;;;;0.88;0.40;;;19.60;44.90;;;;;;6196965;28;20045;-64
2021/03/13 10:38:40;;;;;;;0.38;0.32;;;19.60;44.90;;;;;;6196824;28;20041;-65
2021/03/13 10:41:55;;;;;;;0.60;0.40;;;19.60;44.90;;;;;;6196291;28;20030;-64
2021/03/13 10:45:09;;;;;;;0.68;0.40;;;19.60;44.90;;;;;;6196482;28;20033;-65
2021/03/13 10:48:11;;;;;;;0.65;0.20;;;19.60;44.90;;;;;;6195605;28;20549;-65
2021/03/13 10:51:21;;;;;;;0.40;0.30;;;19.70;44.90;;;;;;6196468;28;20434;-65
2021/03/13 10:54:28;;;;;;;0.73;0.40;;;19.70;44.90;;;;;;6196008;28;20096;-67
2021/03/13 10:57:29;;;;;;;0.30;0.30;;;19.60;45.00;;;;;;6195955;28;20026;-67
2021/03/13 11:00:29;;;;;;;0.30;0.30;;;19.70;45.00;;;;;;6196057;28;20097;-64
2021/03/13 11:03:30;;;;;;;0.20;0.20;;;19.70;44.80;;;;;;6167571;28;20037;-64
2021/03/13 11:06:32;;;;;;;0.85;0.60;;;19.60;44.90;;;;;;6173119;28;20038;-65
2021/03/13 11:09:33;;;;;;;0.63;0.63;;;19.70;45.00;;;;;;6189865;28;20543;-64
2021/03/13 11:12:34;;;;;;;0.30;0.30;;;19.60;45.00;;;;;;6194035;28;20030;-65
2021/03/13 11:15:34;;;;;;;0.70;0.47;;;19.60;45.10;;;;;;6193956;28;20030;-65
2021/03/13 11:18:35;;;;;;;2.65;0.80;;;19.60;45.10;;;;;;6192055;28;20034;-64
2021/03/13 11:21:35;;;;;;;0.77;0.68;;;19.60;44.80;;;;;;6177891;28;20113;-64
2021/03/13 11:24:36;;;;;;;0.82;0.73;;;19.50;44.40;;;;;;6193396;28;20026;-67
2021/03/13 11:27:37;;;;;;;3.28;1.10;;;19.50;44.20;;;;;;6165211;28;20045;-66
2021/03/13 11:30:38;;;;;;;4.30;0.90;;;19.50;44.10;;;;;;6183727;28;20135;-66
2021/03/13 11:33:39;;;;;;;4.30;0.85;;;19.50;44.00;;;;;;6170648;28;20536;-66
2021/03/13 11:36:39;;;;;;;6.18;1.00;;;19.50;43.50;;;;;;6192879;28;20034;-66
2021/03/13 11:39:40;;;;;;;3.80;0.90;;;19.50;43.50;;;;;;6192463;28;20037;-67
2021/03/13 11:42:41;;;;;;;1.70;0.90;;;19.60;43.90;;;;;;6182057;28;20377;-66
2021/03/13 11:45:41;;;;;;;1.65;0.80;;;19.60;43.90;;;;;;6192793;28;20385;-66
2021/03/13 11:48:43;;;;;;;3.13;0.88;;;19.60;44.10;;;;;;6191736;28;20105;-66
2021/03/13 11:51:43;;;;;;;2.42;0.88;;;19.60;44.00;;;;;;6188332;28;20358;-66
2021/03/13 11:54:45;;;;;;;2.85;0.82;;;19.60;44.20;;;;;;6174269;28;20042;-67
2021/03/13 11:57:45;;;;;;;0.90;0.52;;;19.60;44.30;;;;;;6167227;28;20092;-66
2021/03/13 12:00:46;;;;;;;1.70;0.88;;;19.60;44.40;;;;;;6169195;28;20340;-67
2021/03/13 12:03:46;;;;;;;2.13;1.10;;;19.60;44.50;;;;;;6174518;28;20085;-67
2021/03/13 12:06:47;;;;;;;1.90;0.93;;;19.60;44.50;;;;;;6188608;28;20486;-67
2021/03/13 12:09:47;;;;;;;2.13;0.50;;;19.60;44.60;;;;;;6180533;28;20397;-67
2021/03/13 12:12:48;;;;;;;2.35;0.63;;;19.60;44.60;;;;;;6169187;28;20094;-67
2021/03/13 12:15:49;;;;;;;1.08;0.60;;;19.60;44.70;;;;;;6185922;28;20050;-67
2021/03/13 12:18:50;;;;;;;1.20;0.70;;;19.60;44.70;;;;;;6169159;28;20513;-67
2021/03/13 12:21:51;;;;;;;1.85;0.60;;;19.60;44.80;;;;;;6192834;28;20030;-67
2021/03/13 12:24:52;;;;;;;0.82;0.60;;;19.60;44.80;;;;;;6185818;28;20113;-66
2021/03/13 12:27:53;;;;;;;1.38;0.60;;;19.60;44.90;;;;;;6192800;28;20039;-65
2021/03/13 12:30:53;;;;;;;1.67;0.65;;;19.60;44.80;;;;;;6193288;28;20045;-64
2021/03/13 12:33:54;;;;;;;0.60;0.52;;;19.60;44.90;;;;;;6193348;28;20037;-65
2021/03/13 12:36:54;;;;;;;1.67;0.40;;;19.60;44.90;;;;;;6188571;28;20486;-65
2021/03/13 12:39:56;;;;;;;0.73;0.60;;;19.60;44.90;;;;;;6179411;28;20509;-65
2021/03/13 12:42:56;;;;;;;0.52;0.40;;;19.60;44.90;;;;;;6193201;28;20035;-65
2021/03/13 12:45:58;;;;;;;0.55;0.32;;;19.60;45.00;;;;;;6193042;28;20029;-64
2021/03/13 12:48:58;;;;;;;3.08;1.10;;;19.60;45.00;;;;;;6193401;28;20061;-65
2021/03/13 12:52:00;;;;;;;1.02;0.50;;;19.60;45.00;;;;;;6191279;28;20102;-66
2021/03/13 12:55:01;;;;;;;0.63;0.50;;;19.60;45.00;;;;;;6192001;28;20768;-66
2021/03/13 12:58:02;;;;;;;0.65;0.47;;;19.60;45.10;;;;;;6178958;28;20142;-66
2021/03/13 13:01:04;;;;;;;0.63;0.50;;;19.60;45.10;;;;;;6175828;28;20034;-66
2021/03/13 13:04:05;;;;;;;1.42;0.60;;;19.60;45.10;;;;;;6167754;28;20110;-66
2021/03/13 13:07:05;;;;;;;0.70;0.50;;;19.60;45.10;;;;;;6180368;28;20034;-67
2021/03/13 13:10:06;;;;;;;0.80;0.50;;;19.60;45.80;;;;;;6172824;28;20113;-64
2021/03/13 13:13:18;;;;;;;1.10;0.60;;;19.60;45.10;;;;;;6176038;28;20516;-64
2021/03/13 13:16:20;;;;;;;1.10;0.57;;;19.60;45.10;;;;;;6184118;28;20046;-66
2021/03/13 13:19:20;;;;;;;1.73;0.60;;;19.60;45.20;;;;;;6175726;28;20029;-67
2021/03/13 13:22:20;;;;;;;0.40;0.40;;;19.60;45.20;;;;;;6187807;28;20026;-67
2021/03/13 13:25:22;;;;;;;0.73;0.50;;;19.60;45.20;;;;;;6197552;28;20022;-67
2021/03/13 13:28:24;;;;;;;0.55;0.47;;;19.60;45.20;;;;;;6186885;28;20090;-67
2021/03/13 13:31:24;;;;;;;1.65;0.50;;;19.60;45.20;;;;;;6196171;28;20034;-67
2021/03/13 13:34:25;;;;;;;2.10;0.60;;;19.60;45.20;;;;;;6196795;28;20049;-67
2021/03/13 13:37:26;;;;;;;0.82;0.55;;;19.60;45.20;;;;;;6196368;28;20061;-67
2021/03/13 13:40:27;;;;;;;2.05;0.50;;;19.60;45.30;;;;;;6184571;28;20532;-66
2021/03/13 13:43:27;;;;;;;0.63;0.52;;;19.70;45.40;;;;;;6194345;28;20041;-66
2021/03/13 13:46:28;;;;;;;0.73;0.50;;;19.60;45.30;;;;;;6195897;28;20569;-67
2021/03/13 13:49:29;;;;;;;0.50;0.40;;;19.60;45.30;;;;;;6196646;28;20032;-67
2021/03/13 13:52:29;;;;;;;0.63;0.60;;;19.60;45.30;;;;;;6196414;28;20081;-66
2021/03/13 13:55:30;;;;;;;0.73;0.50;;;19.60;45.40;;;;;;6191852;28;20193;-66
2021/03/13 13:58:31;;;;;;;0.80;0.57;;;19.60;45.40;;;;;;6171742;28;20556;-66
2021/03/13 14:01:32;;;;;;;0.70;0.45;;;19.60;45.40;;;;;;6181275;28;20134;-67
2021/03/13 14:04:33;;;;;;;1.45;0.70;;;19.60;45.40;;;;;;6195879;28;20453;-67
2021/03/13 14:07:34;;;;;;;0.45;0.40;;;19.60;45.50;;;;;;6195069;28;20033;-67
2021/03/13 14:10:35;;;;;;;0.68;0.50;;;19.70;45.50;;;;;;6191679;28;20034;-67
2021/03/13 14:13:36;;;;;;;0.70;0.50;;;19.60;45.50;;;;;;6191572;28;20054;-67
2021/03/13 14:16:36;;;;;;;0.65;0.40;;;19.70;45.50;;;;;;6195979;28;20050;-67
2021/03/13 14:19:37;;;;;;;1.17;0.60;;;19.60;45.50;;;;;;6194633;28;20031;-66
2021/03/13 14:22:37;;;;;;;0.63;0.40;;;19.60;45.50;;;;;;6195699;28;20105;-67
2021/03/13 14:25:38;;;;;;;0.70;0.35;;;19.60;45.50;;;;;;6196360;28;20109;-66
2021/03/13 14:28:39;;;;;;;0.55;0.47;;;19.60;45.60;;;;;;6191835;28;20411;-67
2021/03/13 14:31:40;;;;;;;0.70;0.50;;;19.60;45.50;;;;;;6187362;28;20117;-67
2021/03/13 14:34:42;;;;;;;0.38;0.38;;;19.60;45.50;;;;;;6172557;28;20047;-67
2021/03/13 14:37:43;;;;;;;0.52;0.40;;;19.60;45.60;;;;;;6180600;28;20580;-65
2021/03/13 14:40:43;;;;;;;0.95;0.50;;;19.60;45.60;;;;;;6196148;28;20049;-65
2021/03/13 14:43:44;;;;;;;0.77;0.40;;;19.70;45.60;;;;;;6193804;28;20351;-65
2021/03/13 14:46:44;;;;;;;1.55;0.43;;;19.60;45.60;;;;;;6195308;28;20527;-65
2021/03/13 14:49:45;;;;;;;0.57;0.57;;;19.60;45.60;;;;;;6194940;28;20077;-65
2021/03/13 14:52:48;;;;;;;0.60;0.40;;;19.60;45.60;;;;;;6194660;28;20030;-65
2021/03/13 14:55:50;;;;;;;3.50;0.40;;;19.60;45.60;;;;;;6194094;28;20389;-65
2021/03/13 14:58:50;;;;;;;2.53;0.57;;;19.70;45.80;;;;;;6193828;28;20026;-65
2021/03/13 15:01:51;;;;;;;2.70;0.57;;;19.70;45.80;;;;;;6195348;28;20125;-64
2021/03/13 15:04:53;;;;;;;1.05;0.40;;;19.70;45.70;;;;;;6188799;28;20022;-65
2021/03/13 15:07:53;;;;;;;4.22;0.63;;;19.70;45.70;;;;;;6180945;28;20041;-66
2021/03/13 15:10:54;;;;;;;3.70;0.60;;;19.70;45.70;;;;;;6194612;28;20027;-67
2021/03/13 15:13:55;;;;;;;1.83;0.60;;;19.70;45.70;;;;;;6189893;28;20304;-67
2021/03/13 15:16:55;;;;;;;3.28;0.40;;;19.70;45.80;;;;;;6147589;28;20110;-67
2021/03/13 15:19:56;;;;;;;1.70;0.50;;;19.70;45.70;;;;;;6192299;28;20069;-66
2021/03/13 15:22:56;;;;;;;3.38;0.40;;;19.70;45.70;;;;;;6194271;28;20038;-67
2021/03/13 15:25:57;;;;;;;3.17;0.60;;;19.70;45.70;;;;;;6194219;28;20029;-67
2021/03/13 15:28:58;;;;;;;0.55;0.50;;;19.70;45.80;;;;;;6194091;28;20026;-66
2021/03/13 15:31:59;;;;;;;0.75;0.47;;;19.70;45.80;;;;;;6193433;28;20481;-66
2021/03/13 15:34:59;;;;;;;2.55;0.40;;;19.70;45.80;;;;;;6193821;28;20065;-67
2021/03/13 15:38:00;;;;;;;1.77;0.40;;;19.70;45.80;;;;;;6194133;28;20023;-67
2021/03/13 15:41:02;;;;;;;1.35;0.40;;;19.70;45.80;;;;;;6175111;28;20066;-67
2021/03/13 15:44:03;;;;;;;5.10;0.30;;;19.70;45.80;;;;;;6185177;28;20069;-67
2021/03/13 15:47:04;;;;;;;2.38;0.90;;;19.70;45.80;;;;;;6193586;28;20125;-66
2021/03/13 15:50:07;;;;;;;0.63;0.40;;;19.70;45.80;;;;;;6193645;28;20023;-64
2021/03/13 15:53:08;;;;;;;0.77;0.50;;;19.70;45.80;;;;;;6193886;28;20026;-65